Huvudsida
METAR-TAF:

METAR-TAF

Flygplatser :

Damascus Int. Airport

Damaskus, Syrien

latitud: 33-25N, longitud: 036-31E, höjd: 608 m

Aktuellt väderrapport

Denna rapport gjordes för 35 minuter sedan, klockan 12:00 UTC
Vind 6 kt från syd/sydväst
Temperatur 26°C
Fuktighet 16%
Tryck 1021 hPa
Sikt 10 km eller mer
Inga moln under 1 500 m eller inga cumulonimbus

METAR: OSDI 251200Z 20006KT CAVOK 26/M02 Q1021

Tid: 15:35 (12:35 UTC)

Väderprognos

Denna rapport gjordes för 8 timmar och 35 minuter sedan, klockan 04:00 UTC
Prognos gäller från 25 kl. 06 UTC till 26 kl. 12 UTC
Vind 8 kt från ost/sydost
Sikt 10 km eller mer
Få moln på en höjd av 3000 ft

TAF: OSDI 250400Z 2506/2612 12008KT 9999 FEW030

Aktuella väderrapporter och prognoser från 4000 flygplatser (METAR- och TAF-rapporter).

De tillgängliga stationerna syns som gula och röda prickar på kartan.

För musen över prickarna för att se namnen på stationerna.

Klicka sedan för att få väderrapporter och prognoser.

För att ändra kartan: Klicka på de gröna knapparna med ett svart kors på för att zooma in; den gröna knappen med ett streck på för att zooma ut; eller på de gröna pilarna för angränsande kartor.


METAR-TAF: